Belton, South Carolina
Current Conditions -  °F | °C
As of 11:56 AM on Friday 24 Oct 2014 (Local Time) from KAND Reporting Station
Clear Clear  
Wind Chill: 61°   Ceiling: Unl
Heat Index: 61°   Visibility: 10mi
Dew Point: 43°   Wind: 5mph
Humidity: 52%   Direction: 140°SE
Pressure: 30.1"   Gusts: NA
Location:  34.52°N, 82.49°W
Report Text: KAND 241556Z AUTO 14004KT 10SM CLR 16/06 A3010 RMK AO2 SLP189 T01610061
Loading
Personal Weather Stations






























Interactive Weather Map
Tropical Storm Tracking
New forecast layout! Learn more

10-Day Weather Forecast

Advertisements
Track Severe Weather on mobile